crear test y ex├ímenes   Fast quiz maker   creare esami e test online   Criar teste e exames online
Criar testes e exames online
 

Criar Teste Ver outros Testes

PROVA DE METEOROLOGIA AERONÁUTICA

PILOTO PRIVADO DE AVIÃO

20- No METAR SACO 171700Z 20007KT 0900 + DZ OVC005 16/16 Q1020, tem-se

. Umidade relativa elevada
. Ar instável e úmido
. Céu nublado a 150 metros
. Chuva forte
19 - No METAR SBBE 091600Z 34014G25KT 7000 VCSH BKN020 30/24 Q1010, tem-se:

. Trovoadas nas vizinhanças
. Vento de rajada com 15 nós
. Céu nublado a 2.000 pés de altura
. Ajuste do altímetro de 1010 polegadas
18 - O vento pertencente à circulação regional, que apresenta característica próprias e ocorre de forma irregular no inferior da circulação geral, denomina-se:

. Correção de jato
. Vento de oeste
. Alíseos
. Brisa
17 - sabendo-se que uma aeronave sobrevoa uma região no FL020, com uma temperatura de 25 graus C , a Altitude Densidade no mesmo, será de:

. 3400 pés
. 2000 pés
. 3200 pés
. 3000 pés
16 - Uma acft sobrevoa uma região no FL070, onde o QNH no momento é de 1002,2 hpa, encontra-se na altitude:

. verdadeira de 7330 pés
. verdadeira de 6670 pés
. verdadeira de 7000 pés
. pressão de 6670 pés
15 - A temperatura padrão ao nível do mar, na escala Fahrenheit equivale a:

. +59°
. +69°
. +5°
. +3°
14 - No METAR SBGR 042000Z 15010KT 8000 -RA BKN020 BKN010 26/20 Q1011, tem-se:

. Nublado a 600 metros e a 300
. Encoberto a 1000 pés
. Chuva moderada
. Vento de rajada com 10 KT
13 - A temperatura do ar na superfície é de 24°C e o ponto do orvalho de 20°C. A nebulosidade convectiva que se forma será:

. Stratus a 1.500 pés
. Altocumulus a 1.000 pés
. Altostratus a 500 metros
. Cumulus a 500 metros
12 - No METAR SBCG 101900Z 32016KT 9999 SCT020 FEW030TCU BKN250 31/23 Q1015, foi observado:

. QNH de 3123 hpa
. Nublado a 2500 pés
. Poucas torres de cúmulos a 900 metros
. Vento franco
11 - No METAR SBCG 101900 32016KT 9999 SCT020 FEW030TCU BKN250 31/23 Q1015, foi observado:

. Teto de 2500 pés
. CAVOK
. Visibilidade de 10 km ou mais
. Vento fraco
10 - Uma nuvem cumulos tem base a 750 metros e topo a 5.000 metros. Qual a temperatura do ar à 3.000 metros de altura se a temperaturas do ponto de orvalho a 500 metros é de 18°C:

. Mais 17,5°C
. Mais 4°C
. Mais 3°C
. Mais 23,5°C
9 - Uma aeronave encontra-se pousada numa pista, cuja elevação é de 3.200 pés. A pressão reduzida ao nível do mar é de 1003,2 hPa. Com tais informações, pode-se afirmar que altitude de press&a

. 3.500 pés
. 2.800 pés
. 2.500 pés
. 3.000 pés
8 - Quando os valores das isóbaras aumentam a medida em que se afastam do centro do sistema de pressão, tem-se um (a):

. cunha
. baixa pressão
. alta pressão
. Crista
7 - O nevoeiro de radiação forma-se associado as seguintes condições:

. Nuvens altas, radiação terrestre e vento forte
. radiação terrestre, céu claro e vento fraco
. vento forte, radiação terrestre e céu claro
. céu claro, radiação solar e vento calmo
6 - No METAR SBGW 121900Z 07005KT 9999 SCT025 SCT100 OVC300 26/16 Q1011, tem-se:

. Visibilidade igual a 10.000 milhas
. Céu encoberto com nuvens altas
. Mensagem do dia 19
. Atmosfera saturada
5 - As superfícies mais claras e brilhantes refletem melhor a luz solar, portanto, possuem albedo:

. Elevado
. Menor
. Médio
. Nulo
4 - No TAF SBCT 170000 180000 16005KT 9000 SCT020 BECMG 0608 0900 FG VV001 BECMG 1516 CAVOK TNM01/12Z TX08/16Z, foi previsto:

. Visibilidade restrita a partir das 16 UTC
. Nevoeiro entre 08 e 15 UTC
. Vento com 05 km/h em todo o período
. visibilidade vertical de 100 metros
3 - 1- No METAR SBGL 151000Z 00000KT 2000 -DZ BR BKN005 OVC080 17/17 Q1020, tem-se:

. Céu nublado a 150 metros
. Céu nublado a 8.000 pés
. Chuvisco moderado
. Chuva leve
2 - O grupo 27018G34KT, no METAR significa vento fluindo:

. para oeste com intensidade média de 34 kt
. de leste com intensidade média de 18 kt
. de oeste com rajada de 34 kt
. de oeste com rajada de 18 kt
1 - No METAR SBKP 191100Z 12008KT 9999 FEW020 SCT230 22/21 Q1018, tem-se:

. Nuvens do estagio baixo, na segunda camada
. Visibilidade horizontal restrita
. Umidade relativa elevada
. vento com 12 KT


Crie o seu propio teste grátis.
Criarteste.com não se responsabiliza pelo conteúdo publicado pelos usuários.